Time;durP1;ratioP1;P1;durP2;ratioP2;P2;SDS_P1;SDS_P2;PMS_P1;PMS_P2;Temp;Humidity;BMP_temperature;BMP_pressure;BME280_temperature;BME280_humidity;BME280_pressure;Samples;Min_cycle;Max_cycle;Signal;HPM_P1;HPM_P2
2024/02/13 00:00:06;;;;;;;8.50;6.30;;;7.50;99.90;;;;;;5074389;28;20528;-56
2024/02/13 00:02:33;;;;;;;8.30;6.90;;;7.50;99.90;;;;;;5074356;28;20432;-56
2024/02/13 00:05:02;;;;;;;11.30;7.17;;;7.50;99.90;;;;;;5074288;28;20449;-56
2024/02/13 00:07:29;;;;;;;9.97;6.77;;;7.50;99.90;;;;;;5074275;28;20465;-56
2024/02/13 00:09:55;;;;;;;9.50;6.73;;;7.50;99.90;;;;;;5073851;28;20445;-56
2024/02/13 00:12:22;;;;;;;10.57;7.40;;;7.50;99.90;;;;;;5074060;28;20856;-56
2024/02/13 00:14:49;;;;;;;8.57;7.57;;;7.40;99.90;;;;;;5074026;28;20531;-56
2024/02/13 00:17:17;;;;;;;12.30;8.40;;;7.40;99.90;;;;;;5073900;28;20559;-57
2024/02/13 00:19:44;;;;;;;7.93;7.00;;;7.40;99.90;;;;;;5073932;28;20535;-57
2024/02/13 00:22:12;;;;;;;10.47;6.80;;;7.40;99.90;;;;;;5073713;28;20445;-57
2024/02/13 00:24:39;;;;;;;11.53;7.10;;;7.40;99.90;;;;;;5073600;28;20934;-57
2024/02/13 00:27:06;;;;;;;9.60;7.07;;;7.40;99.90;;;;;;5073919;28;20468;-57
2024/02/13 00:29:33;;;;;;;10.60;8.03;;;7.40;99.90;;;;;;5073972;28;20455;-57
2024/02/13 00:32:00;;;;;;;10.20;6.73;;;7.40;99.90;;;;;;5073555;28;20473;-57
2024/02/13 00:34:27;;;;;;;10.27;7.40;;;7.40;99.90;;;;;;5073178;28;20452;-57
2024/02/13 00:36:54;;;;;;;10.50;7.83;;;7.40;99.90;;;;;;5073401;28;20452;-58
2024/02/13 00:39:24;;;;;;;10.63;6.20;;;7.40;99.90;;;;;;5073287;28;20951;-57
2024/02/13 00:41:51;;;;;;;21.23;7.90;;;7.40;99.90;;;;;;5074041;28;20551;-57
2024/02/13 00:44:19;;;;;;;11.00;7.40;;;7.40;99.90;;;;;;5073627;28;20824;-57
2024/02/13 00:46:48;;;;;;;10.17;6.87;;;7.30;99.90;;;;;;5073564;28;20531;-57
2024/02/13 00:49:15;;;;;;;7.60;6.80;;;7.30;99.90;;;;;;5073594;28;20460;-57
2024/02/13 00:51:42;;;;;;;16.47;7.60;;;7.30;99.90;;;;;;5073179;28;20441;-57
2024/02/13 00:54:12;;;;;;;9.27;6.70;;;7.30;99.90;;;;;;5073068;28;20517;-57
2024/02/13 00:56:40;;;;;;;9.90;8.07;;;7.30;99.90;;;;;;5073114;28;20432;-57
2024/02/13 00:59:07;;;;;;;9.20;6.90;;;7.20;99.90;;;;;;5073683;28;20462;-57
2024/02/13 01:01:35;;;;;;;12.13;7.30;;;7.20;99.90;;;;;;5074043;28;20490;-57
2024/02/13 01:04:04;;;;;;;9.20;6.47;;;7.20;99.90;;;;;;5073972;28;20448;-57
2024/02/13 01:06:31;;;;;;;11.73;7.37;;;7.20;99.90;;;;;;5073830;28;20463;-57
2024/02/13 01:08:57;;;;;;;11.10;7.07;;;7.30;99.90;;;;;;5073446;28;20461;-57
2024/02/13 01:11:24;;;;;;;9.23;6.67;;;7.30;99.90;;;;;;5073543;28;20446;-57
2024/02/13 01:13:52;;;;;;;11.07;6.47;;;7.30;99.90;;;;;;5073355;28;20491;-57
2024/02/13 01:16:20;;;;;;;14.43;9.00;;;7.30;99.90;;;;;;5073426;28;20444;-57
2024/02/13 01:18:51;;;;;;;11.07;7.23;;;7.20;99.90;;;;;;5073168;28;20464;-57
2024/02/13 01:21:18;;;;;;;14.10;7.40;;;7.20;99.90;;;;;;5073397;28;20451;-57
2024/02/13 01:23:46;;;;;;;11.43;7.60;;;7.20;99.90;;;;;;5073213;28;20467;-57
2024/02/13 01:26:13;;;;;;;8.30;7.00;;;7.30;99.90;;;;;;5072944;28;20449;-56
2024/02/13 01:28:40;;;;;;;9.23;6.13;;;7.30;99.90;;;;;;5073049;28;20469;-57
2024/02/13 01:31:08;;;;;;;11.50;6.90;;;7.20;99.90;;;;;;5073219;28;20538;-57
2024/02/13 01:33:35;;;;;;;12.73;7.30;;;7.20;99.90;;;;;;5072601;28;20860;-57
2024/02/13 01:36:04;;;;;;;12.80;7.30;;;7.20;99.90;;;;;;5073086;28;20498;-57
2024/02/13 01:38:31;;;;;;;8.40;6.80;;;7.20;99.90;;;;;;5072837;28;20498;-57
2024/02/13 01:40:58;;;;;;;10.80;7.00;;;7.20;99.90;;;;;;5072741;28;20792;-57
2024/02/13 01:43:25;;;;;;;15.17;6.77;;;7.20;99.90;;;;;;5073093;28;20809;-57
2024/02/13 01:45:52;;;;;;;12.60;6.13;;;7.20;99.90;;;;;;5076281;28;20992;-57
2024/02/13 01:48:22;;;;;;;12.60;7.63;;;7.20;99.90;;;;;;5076753;28;20986;-57
2024/02/13 01:50:50;;;;;;;9.60;6.67;;;7.20;99.90;;;;;;5076898;28;20448;-57
2024/02/13 01:53:21;;;;;;;12.43;7.57;;;7.20;99.90;;;;;;5076246;28;20498;-57
2024/02/13 01:55:50;;;;;;;11.80;7.53;;;7.10;99.90;;;;;;5076793;28;20483;-57
2024/02/13 01:58:19;;;;;;;9.87;7.50;;;7.10;99.90;;;;;;5076742;28;20561;-57
2024/02/13 02:00:47;;;;;;;14.77;8.00;;;7.10;99.90;;;;;;5076850;28;20448;-57
2024/02/13 02:03:17;;;;;;;13.70;8.40;;;7.10;99.90;;;;;;5077300;28;20450;-57
2024/02/13 02:05:45;;;;;;;12.47;8.40;;;7.00;99.90;;;;;;5076648;28;20525;-57
2024/02/13 02:08:13;;;;;;;12.53;7.87;;;7.00;99.90;;;;;;5076849;28;20529;-57
2024/02/13 02:10:42;;;;;;;12.93;8.37;;;7.00;99.90;;;;;;5076809;28;20527;-57
2024/02/13 02:13:09;;;;;;;10.93;8.37;;;7.00;99.90;;;;;;5076447;28;20488;-57
2024/02/13 02:15:36;;;;;;;13.10;7.37;;;7.00;99.90;;;;;;5076319;28;20463;-57
2024/02/13 02:18:04;;;;;;;18.20;10.60;;;7.00;99.90;;;;;;5076218;28;20468;-57
2024/02/13 02:20:32;;;;;;;14.60;9.43;;;6.90;99.90;;;;;;5076396;28;20445;-57
2024/02/13 02:23:00;;;;;;;18.30;9.60;;;6.90;99.90;;;;;;5076226;28;20452;-57
2024/02/13 02:25:28;;;;;;;14.03;9.93;;;6.90;99.90;;;;;;5076253;28;20480;-57
2024/02/13 02:27:55;;;;;;;20.53;10.57;;;6.90;99.90;;;;;;5076147;28;20468;-57
2024/02/13 02:30:22;;;;;;;17.10;10.60;;;6.90;99.90;;;;;;5076139;28;20444;-57
2024/02/13 02:32:49;;;;;;;17.33;10.37;;;6.90;99.90;;;;;;5075678;28;20567;-57
2024/02/13 02:35:17;;;;;;;15.90;9.80;;;6.90;99.90;;;;;;5076198;28;20443;-57
2024/02/13 02:37:47;;;;;;;14.37;10.50;;;6.90;99.90;;;;;;5076079;28;20452;-57
2024/02/13 02:40:16;;;;;;;15.63;9.40;;;6.80;99.90;;;;;;5076142;28;20520;-57
2024/02/13 02:42:46;;;;;;;14.73;10.00;;;6.80;99.90;;;;;;5075631;28;20821;-57
2024/02/13 02:45:14;;;;;;;14.83;9.43;;;6.70;99.90;;;;;;5076075;28;20524;-57
2024/02/13 02:47:41;;;;;;;15.80;10.73;;;6.70;99.90;;;;;;5075699;28;20469;-57
2024/02/13 02:50:10;;;;;;;12.40;9.27;;;6.70;99.90;;;;;;5075813;28;20444;-57
2024/02/13 02:52:37;;;;;;;12.23;8.63;;;6.70;99.90;;;;;;5075370;28;21069;-57
2024/02/13 02:55:05;;;;;;;14.97;11.07;;;6.70;99.90;;;;;;5075253;28;20459;-57
2024/02/13 02:57:32;;;;;;;17.80;9.57;;;6.70;99.90;;;;;;5074559;28;20500;-57
2024/02/13 03:00:00;;;;;;;14.53;9.13;;;6.70;99.90;;;;;;5075587;28;20489;-57
2024/02/13 03:02:27;;;;;;;13.27;8.97;;;6.70;99.90;;;;;;5075686;28;20436;-57
2024/02/13 03:04:54;;;;;;;17.47;9.70;;;6.70;99.90;;;;;;5075662;28;20437;-57
2024/02/13 03:07:23;;;;;;;11.80;9.13;;;6.70;99.90;;;;;;5075538;28;20470;-57
2024/02/13 03:09:50;;;;;;;18.27;9.90;;;6.80;99.90;;;;;;5075674;28;20476;-57
2024/02/13 03:12:17;;;;;;;20.23;9.83;;;6.70;99.90;;;;;;5075176;28;20953;-57
2024/02/13 03:14:44;;;;;;;17.40;9.77;;;6.70;99.90;;;;;;5075345;28;20432;-57
2024/02/13 03:17:12;;;;;;;16.60;9.10;;;6.70;99.90;;;;;;5075241;28;20468;-57
2024/02/13 03:19:39;;;;;;;17.97;9.57;;;6.70;99.90;;;;;;5075464;28;20436;-57
2024/02/13 03:22:06;;;;;;;20.97;10.63;;;6.70;99.90;;;;;;5075435;28;20440;-57
2024/02/13 03:24:32;;;;;;;16.70;9.97;;;6.60;99.90;;;;;;5075378;28;20447;-57
2024/02/13 03:27:00;;;;;;;15.47;9.80;;;6.60;99.90;;;;;;5075065;28;20476;-57
2024/02/13 03:29:28;;;;;;;10.13;7.97;;;6.60;99.90;;;;;;5075201;28;20524;-57
2024/02/13 03:31:55;;;;;;;12.53;8.80;;;6.60;99.90;;;;;;5075029;28;20490;-57
2024/02/13 03:34:23;;;;;;;14.07;9.00;;;6.70;99.90;;;;;;5074810;28;20484;-57
2024/02/13 03:36:50;;;;;;;16.97;8.80;;;6.70;99.90;;;;;;5074553;28;20970;-57
2024/02/13 03:39:17;;;;;;;17.50;8.90;;;6.60;99.90;;;;;;5075034;28;20498;-57
2024/02/13 03:41:45;;;;;;;13.93;8.20;;;6.60;99.90;;;;;;5074847;28;20445;-57
2024/02/13 03:44:12;;;;;;;20.20;8.77;;;6.60;99.90;;;;;;5074454;28;20849;-57
2024/02/13 03:46:39;;;;;;;10.73;8.00;;;6.60;99.90;;;;;;5074773;28;20444;-58
2024/02/13 03:49:08;;;;;;;10.17;7.97;;;6.60;99.90;;;;;;5074312;28;20507;-58
2024/02/13 03:51:38;;;;;;;17.20;8.60;;;6.60;99.90;;;;;;5074515;28;20502;-57
2024/02/13 03:54:05;;;;;;;13.20;7.90;;;6.60;99.90;;;;;;5074064;28;20863;-57
2024/02/13 03:56:32;;;;;;;13.87;8.60;;;6.60;99.90;;;;;;5074538;28;20451;-57
2024/02/13 03:58:58;;;;;;;14.20;8.37;;;6.60;99.90;;;;;;5074416;28;20841;-57
2024/02/13 04:01:25;;;;;;;11.70;7.93;;;6.50;99.90;;;;;;5074379;28;20437;-57
2024/02/13 04:03:52;;;;;;;12.93;7.90;;;6.50;99.90;;;;;;5074347;28;20439;-57
2024/02/13 04:06:19;;;;;;;11.53;8.43;;;6.50;99.90;;;;;;5074256;28;20833;-57
2024/02/13 04:08:47;;;;;;;17.67;7.83;;;6.50;99.90;;;;;;5074252;28;20844;-57
2024/02/13 04:11:14;;;;;;;11.50;8.00;;;6.50;99.90;;;;;;5075342;28;20508;-57
2024/02/13 04:13:41;;;;;;;12.67;7.00;;;6.50;99.90;;;;;;5075400;28;20484;-57
2024/02/13 04:16:08;;;;;;;12.70;7.57;;;6.50;99.90;;;;;;5075600;28;20467;-57
2024/02/13 04:18:35;;;;;;;14.90;7.80;;;6.40;99.90;;;;;;5075344;28;20472;-57
2024/02/13 04:21:01;;;;;;;13.00;8.30;;;6.40;99.90;;;;;;5074606;28;20444;-57
2024/02/13 04:23:28;;;;;;;7.80;6.30;;;6.40;99.90;;;;;;5073993;28;20436;-57
2024/02/13 04:25:57;;;;;;;10.23;6.37;;;6.40;99.90;;;;;;5074312;28;20472;-57
2024/02/13 04:28:23;;;;;;;10.13;6.43;;;6.40;99.90;;;;;;5074245;28;20468;-57
2024/02/13 04:30:51;;;;;;;11.87;6.47;;;6.40;99.90;;;;;;5073673;28;20455;-57
2024/02/13 04:33:18;;;;;;;10.50;6.20;;;6.40;99.90;;;;;;5073905;28;20487;-57
2024/02/13 04:35:45;;;;;;;14.77;6.80;;;6.40;99.90;;;;;;5073992;28;20452;-57
2024/02/13 04:38:11;;;;;;;7.10;6.20;;;6.40;99.90;;;;;;5073596;28;20468;-57
2024/02/13 04:40:38;;;;;;;9.33;5.93;;;6.40;99.90;;;;;;5074089;28;20797;-57
2024/02/13 04:43:07;;;;;;;11.17;6.67;;;6.40;99.90;;;;;;5073907;28;20445;-57
2024/02/13 04:45:34;;;;;;;7.57;5.67;;;6.40;99.90;;;;;;5073400;28;20861;-57
2024/02/13 04:48:01;;;;;;;9.70;5.80;;;6.40;99.90;;;;;;5073681;28;20469;-57
2024/02/13 04:50:27;;;;;;;7.80;5.87;;;6.40;99.90;;;;;;5073345;28;20931;-57
2024/02/13 04:52:55;;;;;;;10.20;5.50;;;6.40;99.90;;;;;;5073525;28;20813;-57
2024/02/13 04:55:22;;;;;;;8.63;5.43;;;6.30;99.90;;;;;;5073699;28;20421;-57
2024/02/13 04:57:49;;;;;;;11.43;6.20;;;6.30;99.90;;;;;;5073385;28;20476;-57
2024/02/13 05:00:24;;;;;;;14.10;6.00;;;6.30;99.90;;;;;;5073714;28;20441;-57
2024/02/13 05:03:01;;;;;;;8.60;5.73;;;6.20;99.90;;;;;;5073654;28;20546;-57
2024/02/13 05:08:12;;;;;;;13.73;5.77;;;6.20;99.90;;;;;;5073168;28;20443;-57
2024/02/13 05:10:40;;;;;;;12.63;5.37;;;6.20;99.90;;;;;;5073118;28;20449;-57
2024/02/13 05:13:07;;;;;;;9.40;5.80;;;6.20;99.90;;;;;;5073421;28;20444;-57
2024/02/13 05:15:36;;;;;;;8.60;5.43;;;6.20;99.90;;;;;;5073361;28;20448;-57
2024/02/13 05:18:04;;;;;;;10.40;6.20;;;6.20;99.90;;;;;;5073305;28;20518;-57
2024/02/13 05:20:31;;;;;;;9.10;5.37;;;6.10;99.90;;;;;;5072678;28;20445;-57
2024/02/13 05:22:59;;;;;;;9.37;5.50;;;6.10;99.90;;;;;;5073317;28;20451;-57
2024/02/13 05:25:26;;;;;;;8.57;5.43;;;6.20;99.90;;;;;;5073132;28;20441;-57
2024/02/13 05:27:53;;;;;;;10.20;5.57;;;6.10;99.90;;;;;;5073911;28;20526;-57
2024/02/13 05:30:22;;;;;;;6.30;5.10;;;6.20;99.90;;;;;;5073212;28;20444;-57
2024/02/13 05:32:50;;;;;;;8.30;5.13;;;6.10;99.90;;;;;;5073099;28;20448;-57
2024/02/13 05:35:18;;;;;;;7.50;4.83;;;6.10;99.90;;;;;;5073144;28;20488;-57
2024/02/13 05:37:44;;;;;;;10.33;5.50;;;6.10;99.90;;;;;;5072736;28;20507;-57
2024/02/13 05:40:12;;;;;;;8.20;5.27;;;6.10;99.90;;;;;;5072765;28;20820;-57
2024/02/13 05:42:39;;;;;;;11.83;5.57;;;6.10;99.90;;;;;;5073042;28;20436;-57
2024/02/13 05:45:07;;;;;;;7.47;5.40;;;6.10;99.90;;;;;;5072709;28;20445;-57
2024/02/13 05:47:35;;;;;;;8.50;5.07;;;6.10;99.90;;;;;;5073064;28;20890;-57
2024/02/13 05:50:06;;;;;;;9.23;5.20;;;6.10;99.90;;;;;;5072845;28;20852;-57
2024/02/13 05:52:33;;;;;;;9.60;4.73;;;6.10;99.90;;;;;;5072473;28;20965;-57
2024/02/13 05:55:00;;;;;;;8.33;5.07;;;6.00;99.90;;;;;;5072528;28;20492;-57
2024/02/13 05:57:27;;;;;;;7.03;4.40;;;6.00;99.90;;;;;;5072585;28;20846;-57
2024/02/13 05:59:55;;;;;;;9.40;5.00;;;6.00;99.90;;;;;;5073025;28;20452;-57
2024/02/13 06:02:22;;;;;;;11.30;5.07;;;6.00;99.90;;;;;;5072800;28;20449;-57
2024/02/13 06:04:49;;;;;;;8.20;4.60;;;6.00;99.90;;;;;;5072780;28;20512;-57
2024/02/13 06:07:17;;;;;;;5.00;4.23;;;6.00;99.90;;;;;;5072396;28;20530;-57
2024/02/13 06:09:44;;;;;;;7.03;5.40;;;6.00;99.90;;;;;;5072721;28;20433;-57
2024/02/13 06:12:12;;;;;;;7.03;4.43;;;5.90;99.90;;;;;;5072411;28;20491;-57
2024/02/13 06:14:39;;;;;;;6.77;4.50;;;6.00;99.90;;;;;;5072863;28;20452;-57
2024/02/13 06:17:07;;;;;;;6.87;4.33;;;5.90;99.90;;;;;;5072560;28;20453;-57
2024/02/13 06:19:34;;;;;;;8.27;4.70;;;6.00;99.90;;;;;;5072323;28;20449;-57
2024/02/13 06:22:01;;;;;;;13.60;5.67;;;5.90;99.90;;;;;;5072296;28;20973;-57
2024/02/13 06:24:29;;;;;;;8.37;4.50;;;6.00;99.90;;;;;;5072570;28;20480;-58
2024/02/13 06:26:55;;;;;;;14.73;4.73;;;5.90;99.90;;;;;;5072186;28;20445;-57
2024/02/13 06:29:23;;;;;;;13.07;4.30;;;5.90;99.90;;;;;;5072285;28;20817;-57
2024/02/13 06:31:54;;;;;;;11.87;4.90;;;5.90;99.90;;;;;;5074245;28;20514;-57
2024/02/13 06:34:21;;;;;;;8.77;4.70;;;5.80;99.90;;;;;;5075896;28;20524;-57
2024/02/13 06:36:48;;;;;;;7.00;4.00;;;5.80;99.90;;;;;;5076297;28;20498;-57
2024/02/13 06:39:20;;;;;;;7.43;4.27;;;5.90;99.90;;;;;;5076306;28;20440;-57
2024/02/13 06:41:49;;;;;;;8.37;4.20;;;5.90;99.90;;;;;;5076118;28;20506;-57
2024/02/13 06:44:16;;;;;;;10.70;4.57;;;5.90;99.90;;;;;;5076014;28;20487;-57
2024/02/13 06:46:43;;;;;;;10.93;4.27;;;5.90;99.90;;;;;;5075807;28;20448;-56
2024/02/13 06:49:09;;;;;;;7.60;3.47;;;5.90;99.90;;;;;;5075835;28;20475;-56
2024/02/13 06:51:36;;;;;;;7.07;3.73;;;5.80;99.90;;;;;;5075802;28;20444;-57
2024/02/13 06:54:04;;;;;;;11.80;3.53;;;5.80;99.90;;;;;;5075599;28;20457;-57
2024/02/13 06:56:31;;;;;;;6.63;3.43;;;5.80;99.90;;;;;;5075761;28;20444;-57
2024/02/13 06:58:59;;;;;;;6.77;3.10;;;5.80;99.90;;;;;;5075703;28;20850;-57
2024/02/13 07:01:26;;;;;;;5.10;3.33;;;5.80;99.90;;;;;;5075608;28;20451;-57
2024/02/13 07:03:53;;;;;;;8.87;3.70;;;5.80;99.90;;;;;;5075605;28;20920;-57
2024/02/13 07:06:20;;;;;;;8.93;3.67;;;5.80;99.90;;;;;;5075496;28;20445;-57
2024/02/13 07:08:46;;;;;;;7.70;3.20;;;5.80;99.90;;;;;;5075442;28;20819;-57
2024/02/13 07:11:13;;;;;;;8.70;3.87;;;5.80;99.90;;;;;;5075557;28;20448;-57
2024/02/13 07:13:40;;;;;;;13.73;3.87;;;5.80;99.90;;;;;;5075482;28;20447;-57
2024/02/13 07:16:08;;;;;;;11.10;2.90;;;5.80;99.90;;;;;;5075391;28;20461;-57
2024/02/13 07:18:35;;;;;;;11.93;3.57;;;5.80;99.90;;;;;;5075720;28;20469;-57
2024/02/13 07:21:06;;;;;;;7.73;3.83;;;5.90;99.90;;;;;;5075761;28;20953;-57
2024/02/13 07:23:33;;;;;;;4.10;3.13;;;5.90;99.90;;;;;;5075668;28;20429;-57
2024/02/13 07:26:00;;;;;;;6.23;2.80;;;6.00;99.90;;;;;;5075347;28;20492;-57
2024/02/13 07:28:28;;;;;;;9.53;2.87;;;6.00;99.90;;;;;;5075166;28;20555;-57
2024/02/13 07:30:55;;;;;;;5.73;2.73;;;6.00;99.90;;;;;;5074791;28;20848;-57
2024/02/13 07:33:23;;;;;;;5.90;2.50;;;6.00;99.90;;;;;;5074981;28;20445;-57
2024/02/13 07:35:50;;;;;;;6.93;2.80;;;6.10;99.90;;;;;;5075001;28;20515;-57
2024/02/13 07:38:17;;;;;;;8.37;2.60;;;6.10;99.90;;;;;;5074783;28;20465;-57
2024/02/13 07:40:44;;;;;;;7.57;2.70;;;6.10;99.90;;;;;;5074614;28;20456;-57
2024/02/13 07:43:12;;;;;;;7.90;3.03;;;6.20;99.90;;;;;;5074355;28;20873;-57
2024/02/13 07:45:39;;;;;;;8.50;2.87;;;6.20;99.90;;;;;;5074392;28;20484;-58
2024/02/13 07:48:10;;;;;;;8.80;2.73;;;6.30;99.90;;;;;;5074310;28;21049;-57
2024/02/13 07:50:38;;;;;;;4.40;2.40;;;6.30;99.90;;;;;;5074315;28;20425;-57
2024/02/13 07:53:06;;;;;;;4.57;2.60;;;6.40;99.90;;;;;;5074379;28;20463;-57
2024/02/13 07:55:35;;;;;;;7.70;3.60;;;6.40;99.90;;;;;;5074526;28;20421;-57
2024/02/13 07:58:02;;;;;;;5.80;2.80;;;6.50;99.90;;;;;;5074109;28;20844;-57
2024/02/13 08:00:29;;;;;;;4.57;2.37;;;6.50;99.90;;;;;;5074440;28;20907;-57
2024/02/13 08:02:56;;;;;;;5.43;2.77;;;6.60;99.90;;;;;;5074084;28;20444;-57
2024/02/13 08:05:23;;;;;;;4.87;2.60;;;6.60;99.90;;;;;;5074297;28;20480;-57
2024/02/13 08:07:51;;;;;;;7.87;3.37;;;6.70;99.90;;;;;;5073861;28;20463;-57
2024/02/13 08:10:18;;;;;;;7.20;2.67;;;6.80;99.90;;;;;;5074239;28;20440;-57
2024/02/13 08:12:45;;;;;;;5.13;1.90;;;6.80;99.90;;;;;;5074259;28;20447;-57
2024/02/13 08:15:12;;;;;;;5.73;2.60;;;6.90;99.90;;;;;;5073889;28;20982;-57
2024/02/13 08:17:39;;;;;;;3.47;1.70;;;7.00;99.90;;;;;;5074008;28;20467;-57
2024/02/13 08:20:08;;;;;;;4.70;2.03;;;7.00;99.90;;;;;;5074141;28;20441;-57
2024/02/13 08:22:35;;;;;;;5.73;2.20;;;7.00;99.90;;;;;;5074043;28;20543;-57
2024/02/13 08:25:04;;;;;;;4.60;2.60;;;7.10;99.90;;;;;;5073838;28;20491;-57
2024/02/13 08:27:31;;;;;;;6.70;2.40;;;7.10;99.90;;;;;;5073595;28;20469;-57
2024/02/13 08:29:57;;;;;;;5.73;2.57;;;7.10;99.90;;;;;;5073512;28;21042;-57
2024/02/13 08:32:26;;;;;;;7.00;2.30;;;7.10;99.90;;;;;;5074526;28;20494;-57
2024/02/13 08:34:53;;;;;;;2.27;1.80;;;7.10;99.90;;;;;;5073509;28;20817;-57
2024/02/13 08:37:22;;;;;;;4.67;2.20;;;7.20;99.90;;;;;;5073657;28;20473;-56
2024/02/13 08:39:48;;;;;;;5.70;2.20;;;7.20;99.90;;;;;;5073481;28;20456;-57
2024/02/13 08:42:17;;;;;;;6.40;1.93;;;7.20;99.90;;;;;;5073347;28;20954;-57
2024/02/13 08:44:44;;;;;;;11.03;2.40;;;7.20;99.90;;;;;;5073720;28;20480;-57
2024/02/13 08:47:10;;;;;;;6.40;2.53;;;7.20;99.90;;;;;;5073561;28;20441;-57
2024/02/13 08:49:38;;;;;;;4.97;2.57;;;7.30;99.90;;;;;;5073347;28;20992;-57
2024/02/13 08:52:05;;;;;;;7.77;2.27;;;7.40;99.90;;;;;;5073501;28;20451;-57
2024/02/13 08:54:32;;;;;;;4.63;2.27;;;7.40;99.90;;;;;;5072318;28;20755;-57
2024/02/13 08:57:00;;;;;;;4.90;1.70;;;7.50;99.90;;;;;;5073393;28;20459;-57
2024/02/13 08:59:32;;;;;;;8.33;2.33;;;7.50;99.90;;;;;;5073495;28;20444;-57
2024/02/13 09:01:59;;;;;;;6.87;1.90;;;7.60;99.90;;;;;;5073492;28;20463;-57
2024/02/13 09:04:25;;;;;;;7.93;2.17;;;7.60;99.90;;;;;;5073432;28;20440;-57
2024/02/13 09:06:52;;;;;;;4.27;2.00;;;7.60;99.90;;;;;;5073062;28;20498;-57
2024/02/13 09:09:19;;;;;;;7.77;2.60;;;7.60;99.90;;;;;;5073426;28;20467;-58
2024/02/13 09:11:46;;;;;;;6.30;1.90;;;7.60;99.90;;;;;;5073324;28;20535;-57
2024/02/13 09:14:13;;;;;;;5.87;1.53;;;7.70;99.90;;;;;;5073294;28;20457;-58
2024/02/13 09:16:41;;;;;;;5.20;3.50;;;7.80;99.90;;;;;;5073262;28;20448;-57
2024/02/13 09:19:08;;;;;;;5.70;2.50;;;7.80;99.90;;;;;;5072847;28;20865;-57
2024/02/13 09:21:35;;;;;;;5.33;2.30;;;7.90;99.90;;;;;;5073213;28;20444;-57
2024/02/13 09:24:02;;;;;;;4.23;1.30;;;7.90;99.90;;;;;;5073176;28;20441;-57
2024/02/13 09:26:28;;;;;;;7.40;2.30;;;8.00;99.90;;;;;;5073197;28;20488;-57
2024/02/13 09:28:57;;;;;;;4.17;1.60;;;8.00;99.90;;;;;;5073203;28;20470;-57
2024/02/13 09:31:24;;;;;;;5.70;2.07;;;8.10;99.90;;;;;;5073052;28;20448;-57
2024/02/13 09:33:52;;;;;;;5.73;2.20;;;8.10;99.90;;;;;;5073041;28;20449;-57
2024/02/13 09:36:20;;;;;;;6.80;1.53;;;8.10;99.90;;;;;;5072859;28;20814;-57
2024/02/13 09:38:47;;;;;;;4.43;1.67;;;8.20;99.90;;;;;;5072958;28;20556;-57
2024/02/13 09:41:14;;;;;;;4.50;2.00;;;8.20;99.90;;;;;;5072757;28;20449;-57
2024/02/13 09:43:42;;;;;;;5.10;1.57;;;8.30;99.90;;;;;;5072777;28;20459;-57
2024/02/13 09:46:10;;;;;;;7.00;1.40;;;8.40;99.90;;;;;;5072959;28;20480;-57
2024/02/13 09:48:38;;;;;;;3.87;1.53;;;8.40;99.90;;;;;;5072958;28;20523;-57
2024/02/13 09:51:09;;;;;;;5.87;1.90;;;8.50;99.90;;;;;;5072557;28;20444;-57
2024/02/13 09:53:40;;;;;;;3.40;1.50;;;8.60;99.90;;;;;;5072634;28;20456;-57
2024/02/13 09:56:07;;;;;;;6.93;1.87;;;8.60;99.90;;;;;;5072908;28;20482;-57
2024/02/13 09:58:35;;;;;;;4.57;1.60;;;8.70;99.90;;;;;;5072493;28;20845;-57
2024/02/13 10:01:02;;;;;;;7.43;2.27;;;8.80;99.90;;;;;;5072966;28;20452;-57
2024/02/13 10:03:29;;;;;;;4.37;1.47;;;8.80;99.90;;;;;;5072933;28;20449;-57
2024/02/13 10:05:56;;;;;;;6.20;2.00;;;9.00;99.90;;;;;;5074773;28;20571;-57
2024/02/13 10:08:27;;;;;;;2.97;1.57;;;9.00;99.90;;;;;;5076573;28;20486;-57
2024/02/13 10:11:00;;;;;;;4.20;1.53;;;9.10;99.90;;;;;;5076307;28;20946;-57
2024/02/13 10:13:31;;;;;;;7.40;1.43;;;9.20;99.90;;;;;;5076192;28;20899;-57
2024/02/13 10:15:58;;;;;;;4.90;1.40;;;9.20;99.90;;;;;;5076286;28;20794;-57
2024/02/13 10:18:25;;;;;;;5.63;1.50;;;9.30;99.90;;;;;;5076437;28;20468;-57
2024/02/13 10:20:52;;;;;;;6.03;1.67;;;9.40;99.90;;;;;;5076821;28;20436;-57
2024/02/13 10:23:24;;;;;;;4.10;1.63;;;9.50;99.90;;;;;;5076519;28;20451;-57
2024/02/13 10:25:53;;;;;;;3.10;1.70;;;9.50;99.90;;;;;;5076470;28;20514;-57
2024/02/13 10:28:22;;;;;;;7.83;2.30;;;9.60;99.90;;;;;;5076232;28;20530;-57
2024/02/13 10:30:50;;;;;;;3.30;1.37;;;9.70;99.90;;;;;;5076307;28;20816;-57
2024/02/13 10:33:19;;;;;;;4.50;1.57;;;9.80;99.90;;;;;;5075875;28;20809;-57
2024/02/13 10:35:52;;;;;;;2.33;1.30;;;9.90;99.90;;;;;;5075939;28;20934;-57
2024/02/13 10:38:22;;;;;;;3.30;1.60;;;9.90;99.90;;;;;;5075915;28;20472;-56
2024/02/13 10:40:56;;;;;;;4.43;1.90;;;10.10;99.90;;;;;;5076845;28;20456;-56
2024/02/13 10:43:27;;;;;;;3.83;1.50;;;10.10;99.70;;;;;;5075761;28;20812;-56
2024/02/13 10:45:58;;;;;;;3.10;1.37;;;10.00;99.10;;;;;;5075998;28;20559;-56
2024/02/13 10:48:34;;;;;;;5.43;2.10;;;10.10;99.10;;;;;;5076003;28;20461;-57
2024/02/13 10:51:02;;;;;;;4.30;1.47;;;10.10;99.40;;;;;;5075841;28;20432;-57
2024/02/13 10:53:33;;;;;;;6.10;1.40;;;10.20;99.50;;;;;;5075590;28;20449;-57
2024/02/13 10:56:03;;;;;;;6.90;1.50;;;10.40;98.50;;;;;;5075836;28;20432;-57
2024/02/13 10:58:31;;;;;;;3.23;1.30;;;10.70;97.60;;;;;;5075390;28;21000;-57
2024/02/13 11:01:00;;;;;;;2.60;1.53;;;10.90;97.10;;;;;;5075740;28;20445;-57
2024/02/13 11:03:27;;;;;;;7.73;1.60;;;11.20;97.30;;;;;;5075713;28;20442;-57
2024/02/13 11:05:54;;;;;;;4.90;1.60;;;11.30;96.50;;;;;;5075722;28;20487;-57
2024/02/13 11:08:21;;;;;;;4.57;1.53;;;11.40;96.00;;;;;;5075608;28;20460;-57
2024/02/13 11:10:49;;;;;;;2.00;1.30;;;11.60;96.00;;;;;;5075410;28;20440;-57
2024/02/13 11:13:18;;;;;;;5.57;1.60;;;11.80;95.60;;;;;;5075962;28;20753;-57
2024/02/13 11:15:45;;;;;;;1.40;1.30;;;12.00;94.90;;;;;;5075416;28;20479;-57
2024/02/13 11:18:13;;;;;;;4.50;1.30;;;12.20;93.50;;;;;;5074239;28;20547;-57
2024/02/13 11:20:42;;;;;;;2.53;1.07;;;12.30;92.30;;;;;;5075466;28;20539;-57
2024/02/13 11:23:13;;;;;;;5.63;1.30;;;12.40;91.80;;;;;;5075085;28;20543;-56
2024/02/13 11:25:40;;;;;;;6.70;1.73;;;12.60;92.10;;;;;;5075293;28;20465;-57
2024/02/13 11:28:10;;;;;;;3.17;1.27;;;12.90;91.70;;;;;;5074909;28;20904;-56
2024/02/13 11:30:41;;;;;;;2.87;1.50;;;13.00;90.40;;;;;;5075263;28;20433;-57
2024/02/13 11:33:08;;;;;;;3.03;1.40;;;13.20;89.00;;;;;;5075336;28;20490;-56
2024/02/13 11:35:40;;;;;;;2.53;1.33;;;13.40;88.70;;;;;;5075641;28;20441;-56
2024/02/13 11:38:11;;;;;;;3.37;1.33;;;13.70;86.30;;;;;;5074956;28;20456;-56
2024/02/13 11:40:40;;;;;;;3.53;1.00;;;14.20;85.20;;;;;;5074877;28;20491;-56
2024/02/13 11:43:18;;;;;;;6.67;1.90;;;14.60;80.90;;;;;;5074981;28;20444;-56
2024/02/13 11:45:46;;;;;;;3.77;0.93;;;14.80;77.20;;;;;;5074393;28;20479;-56
2024/02/13 11:48:16;;;;;;;3.60;1.43;;;14.60;74.70;;;;;;5074419;28;20468;-56
2024/02/13 11:50:43;;;;;;;5.83;1.37;;;14.40;77.10;;;;;;5074669;28;20417;-56
2024/02/13 11:53:11;;;;;;;3.07;1.10;;;14.40;77.00;;;;;;5074442;28;20462;-56
2024/02/13 11:55:38;;;;;;;1.43;1.20;;;14.60;76.80;;;;;;5074623;28;20421;-56
2024/02/13 11:58:09;;;;;;;2.50;1.10;;;14.70;74.80;;;;;;5074484;28;20917;-56
2024/02/13 12:00:36;;;;;;;3.80;1.23;;;15.00;74.10;;;;;;5074643;28;20433;-56
2024/02/13 12:03:05;;;;;;;4.00;1.00;;;15.20;72.30;;;;;;5074406;28;20528;-56
2024/02/13 12:05:32;;;;;;;4.77;1.17;;;15.40;72.10;;;;;;5074029;28;20483;-56
2024/02/13 12:07:59;;;;;;;2.57;0.90;;;15.50;69.40;;;;;;5074322;28;20551;-56
2024/02/13 12:10:26;;;;;;;2.87;1.20;;;15.80;66.60;;;;;;5075017;28;20471;-56
2024/02/13 12:12:55;;;;;;;1.27;0.83;;;16.00;63.00;;;;;;5074165;28;20449;-56
2024/02/13 12:15:22;;;;;;;2.33;1.30;;;16.10;63.50;;;;;;5073973;28;20441;-56
2024/02/13 12:17:54;;;;;;;1.77;0.83;;;16.20;63.40;;;;;;5073853;28;21027;-56
2024/02/13 12:20:28;;;;;;;3.43;1.93;;;16.30;62.30;;;;;;5074619;28;20445;-56
2024/02/13 12:22:55;;;;;;;4.37;1.13;;;16.60;61.50;;;;;;5073865;28;20897;-56
2024/02/13 12:25:22;;;;;;;2.47;1.00;;;17.00;56.80;;;;;;5074016;28;20448;-56
2024/02/13 12:27:50;;;;;;;5.50;1.30;;;17.00;56.80;;;;;;5074047;28;20472;-56
2024/02/13 12:30:19;;;;;;;4.53;1.10;;;17.30;55.20;;;;;;5074006;28;20807;-56
2024/02/13 12:32:46;;;;;;;2.80;1.20;;;17.70;54.50;;;;;;5073492;28;20831;-56
2024/02/13 12:35:24;;;;;;;4.63;1.17;;;18.10;53.50;;;;;;5073822;28;20451;-57
2024/02/13 12:37:53;;;;;;;2.40;1.03;;;18.50;52.20;;;;;;5073736;28;20549;-56
2024/02/13 12:40:22;;;;;;;4.50;1.40;;;18.70;51.40;;;;;;5073882;28;20535;-57
2024/02/13 12:42:49;;;;;;;13.53;1.27;;;18.50;49.50;;;;;;5073442;28;21048;-57
2024/02/13 12:45:19;;;;;;;2.33;0.90;;;18.50;50.40;;;;;;5073357;28;20445;-57
2024/02/13 12:47:46;;;;;;;2.30;1.10;;;18.70;48.60;;;;;;5073594;28;20457;-57
2024/02/13 12:50:16;;;;;;;2.20;1.10;;;18.50;49.20;;;;;;5073309;28;20535;-57
2024/02/13 12:52:43;;;;;;;5.63;1.40;;;18.60;49.10;;;;;;5073155;28;20969;-57
2024/02/13 12:55:15;;;;;;;3.30;1.10;;;18.80;47.70;;;;;;5073491;28;20441;-57